createdAt,value
2022-11-21T00:01:07.250Z,1
2022-11-21T00:02:50.636Z,1
2022-11-21T00:04:34.044Z,1
2022-11-21T00:06:17.421Z,1
2022-11-21T00:08:00.829Z,0
2022-11-21T00:09:44.215Z,1
2022-11-21T00:14:53.471Z,1
2022-11-21T00:16:36.860Z,1
2022-11-21T00:18:20.266Z,1
2022-11-21T00:20:03.650Z,1
2022-11-21T00:21:47.053Z,1
2022-11-21T00:23:30.444Z,1
2022-11-21T00:25:13.855Z,1
2022-11-21T00:26:57.249Z,1
2022-11-21T00:30:23.700Z,1
2022-11-21T00:32:07.110Z,1
2022-11-21T00:33:50.504Z,1
2022-11-21T00:35:33.913Z,2
2022-11-21T00:37:17.303Z,1
2022-11-21T00:39:00.685Z,1
2022-11-21T00:40:44.094Z,1
2022-11-21T00:42:27.495Z,1
2022-11-21T00:45:53.967Z,1
2022-11-21T00:47:37.347Z,1
2022-11-21T00:49:20.747Z,1
2022-11-21T00:51:04.148Z,1
2022-11-21T00:52:47.546Z,1
2022-11-21T00:54:30.940Z,1
2022-11-21T00:56:14.348Z,1
2022-11-21T00:57:57.721Z,1
2022-11-21T01:01:24.204Z,1
2022-11-21T01:03:07.671Z,1
2022-11-21T01:04:50.998Z,1
2022-11-21T01:06:34.386Z,1
2022-11-21T01:08:17.788Z,1
2022-11-21T01:10:01.195Z,2
2022-11-21T01:11:44.578Z,1
2022-11-21T01:13:27.985Z,1
2022-11-21T01:15:11.678Z,1
2022-11-21T01:16:55.091Z,2
2022-11-21T01:18:38.466Z,1
2022-11-21T01:20:21.895Z,1
2022-11-21T01:22:05.277Z,1
2022-11-21T01:23:48.650Z,1
2022-11-21T01:25:32.057Z,1
2022-11-21T01:27:15.443Z,1
2022-11-21T01:32:24.698Z,1
2022-11-21T01:34:08.098Z,1
2022-11-21T01:35:51.477Z,1
2022-11-21T01:37:34.877Z,1
2022-11-21T01:39:18.279Z,1
2022-11-21T01:41:01.670Z,1
2022-11-21T01:42:45.078Z,1
2022-11-21T01:44:28.470Z,1
2022-11-21T01:47:54.932Z,1
2022-11-21T01:49:38.343Z,1
2022-11-21T01:51:21.740Z,1
2022-11-21T01:53:05.124Z,1
2022-11-21T01:54:48.530Z,1
2022-11-21T01:56:31.923Z,1
2022-11-21T01:58:15.338Z,1
2022-11-21T01:59:58.721Z,2
2022-11-21T02:03:25.182Z,1
2022-11-21T02:05:08.587Z,1
2022-11-21T02:06:51.969Z,1
2022-11-21T02:08:35.393Z,1
2022-11-21T02:10:18.766Z,1
2022-11-21T02:12:02.193Z,2
2022-11-21T02:13:45.564Z,1
2022-11-21T02:15:28.956Z,1
2022-11-21T02:18:55.434Z,1
2022-11-21T02:20:38.831Z,1
2022-11-21T02:22:22.230Z,1
2022-11-21T02:24:05.629Z,1
2022-11-21T02:25:49.010Z,1
2022-11-21T02:27:32.420Z,2
2022-11-21T02:29:15.810Z,1
2022-11-21T02:34:25.055Z,2
2022-11-21T02:37:51.850Z,2
2022-11-21T02:39:35.236Z,1
2022-11-21T02:41:18.637Z,2
2022-11-21T02:43:02.055Z,1
2022-11-21T02:44:45.436Z,1
2022-11-21T02:49:54.660Z,1
2022-11-21T02:51:38.070Z,1
2022-11-21T02:53:21.476Z,1
2022-11-21T02:55:04.857Z,1
2022-11-21T02:56:48.263Z,2
2022-11-21T02:58:31.648Z,2
2022-11-21T03:00:15.090Z,1
2022-11-21T03:03:41.539Z,1
2022-11-21T03:05:24.912Z,1
2022-11-21T03:07:08.317Z,1
2022-11-21T03:08:51.706Z,2
2022-11-21T03:10:35.101Z,1
2022-11-21T03:12:18.498Z,1
2022-11-21T03:14:01.901Z,1
2022-11-21T03:15:45.309Z,1
2022-11-21T03:19:11.777Z,1
2022-11-21T03:20:55.178Z,2
2022-11-21T03:24:21.944Z,1
2022-11-21T03:27:48.748Z,1
2022-11-21T03:29:32.157Z,1
2022-11-21T03:34:41.396Z,1
2022-11-21T03:36:24.789Z,1
2022-11-21T03:38:08.191Z,1
2022-11-21T03:39:51.850Z,1
2022-11-21T03:41:34.983Z,1
2022-11-21T03:43:18.378Z,1
2022-11-21T03:45:01.778Z,1
2022-11-21T03:46:45.171Z,1
2022-11-21T03:50:11.637Z,1
2022-11-21T03:51:55.055Z,2
2022-11-21T03:53:38.438Z,2
2022-11-21T03:55:21.823Z,1
2022-11-21T03:57:05.224Z,1
2022-11-21T03:58:48.616Z,1
2022-11-21T04:00:32.025Z,1
2022-11-21T04:02:15.419Z,1
2022-11-21T04:03:59.113Z,1
2022-11-21T04:05:42.511Z,1
2022-11-21T04:07:25.914Z,1
2022-11-21T04:09:09.302Z,0
2022-11-21T04:10:52.691Z,1
2022-11-21T04:12:36.091Z,1
2022-11-21T04:14:19.497Z,1
2022-11-21T04:16:02.910Z,1
2022-11-21T04:17:46.600Z,1
2022-11-21T04:19:29.986Z,1
2022-11-21T04:21:13.403Z,0
2022-11-21T04:22:56.790Z,2
2022-11-21T04:24:40.173Z,0
2022-11-21T04:26:23.570Z,1
2022-11-21T04:28:06.985Z,2
2022-11-21T04:29:50.376Z,1
2022-11-21T04:33:16.850Z,2
2022-11-21T04:35:00.244Z,1
2022-11-21T04:36:43.645Z,1
2022-11-21T04:38:27.026Z,1
2022-11-21T04:40:10.427Z,1
2022-11-21T04:41:53.823Z,2
2022-11-21T04:43:37.228Z,1
2022-11-21T04:48:47.095Z,1
2022-11-21T04:50:30.493Z,1
2022-11-21T04:52:13.874Z,1
2022-11-21T04:53:57.276Z,1
2022-11-21T04:55:40.679Z,1
2022-11-21T04:57:24.064Z,1
2022-11-21T04:59:07.462Z,2
2022-11-21T05:04:24.147Z,2
2022-11-21T05:06:10.471Z,1
2022-11-21T05:07:53.876Z,1
2022-11-21T05:09:37.300Z,1
2022-11-21T05:11:20.662Z,1
2022-11-21T05:13:04.088Z,1
2022-11-21T05:14:47.459Z,1
2022-11-21T05:16:30.862Z,1
2022-11-21T05:19:57.328Z,1
2022-11-21T05:21:40.724Z,1
2022-11-21T05:23:24.111Z,1
2022-11-21T05:25:07.516Z,1
2022-11-21T05:26:50.911Z,1
2022-11-21T05:28:34.339Z,1
2022-11-21T05:30:17.695Z,0
2022-11-21T05:32:01.091Z,2
2022-11-21T05:33:44.798Z,1
2022-11-21T05:35:28.209Z,1
2022-11-21T05:37:11.587Z,1
2022-11-21T05:38:55.000Z,1
2022-11-21T05:40:38.393Z,1
2022-11-21T05:42:21.786Z,1
2022-11-21T05:44:05.184Z,1
2022-11-21T05:45:48.579Z,1
2022-11-21T05:47:32.286Z,1
2022-11-21T05:49:15.687Z,1
2022-11-21T05:50:59.073Z,1
2022-11-21T05:52:42.477Z,1
2022-11-21T05:54:25.876Z,1
2022-11-21T05:56:09.268Z,1
2022-11-21T05:57:52.663Z,1
2022-11-21T05:59:36.070Z,0
2022-11-21T06:03:02.535Z,1
2022-11-21T06:04:45.945Z,1
2022-11-21T06:06:29.379Z,1
2022-11-21T06:08:12.719Z,1
2022-11-21T06:09:56.152Z,1
2022-11-21T06:11:39.515Z,1
2022-11-21T06:13:22.936Z,0
2022-11-21T06:18:32.154Z,1
2022-11-21T06:20:15.538Z,1
2022-11-21T06:21:58.955Z,1
2022-11-21T06:23:42.371Z,1
2022-11-21T06:25:25.779Z,1
2022-11-21T06:27:09.133Z,1
2022-11-21T06:28:52.519Z,1
2022-11-21T06:30:35.913Z,1
2022-11-21T06:34:02.530Z,1
2022-11-21T06:35:45.807Z,1
2022-11-21T06:37:29.184Z,1
2022-11-21T06:39:12.576Z,2
2022-11-21T06:40:56.032Z,1
2022-11-21T06:42:39.374Z,0
2022-11-21T06:46:06.156Z,1
2022-11-21T06:51:15.417Z,1
2022-11-21T06:52:58.804Z,1
2022-11-21T06:54:42.192Z,1
2022-11-21T06:56:25.599Z,0
2022-11-21T06:58:08.997Z,1
2022-11-21T06:59:52.412Z,1
2022-11-21T07:01:35.795Z,1
2022-11-21T07:03:19.190Z,1
2022-11-21T07:06:45.643Z,1
2022-11-21T07:08:29.067Z,1
2022-11-21T07:10:12.448Z,1
2022-11-21T07:11:55.852Z,1
2022-11-21T07:13:39.253Z,1
2022-11-21T07:15:22.659Z,1
2022-11-21T07:17:06.030Z,1
2022-11-21T07:18:49.434Z,2
2022-11-21T07:23:58.677Z,1
2022-11-21T07:25:42.075Z,1
2022-11-21T07:27:25.453Z,1
2022-11-21T07:29:08.855Z,1
2022-11-21T07:30:52.284Z,1
2022-11-21T07:32:35.650Z,1
2022-11-21T07:34:19.059Z,1
2022-11-21T07:36:02.460Z,1
2022-11-21T07:41:11.685Z,38
2022-11-21T07:42:55.074Z,39
2022-11-21T07:44:38.480Z,29
2022-11-21T07:46:21.889Z,33
2022-11-21T07:48:05.273Z,42
2022-11-21T07:49:48.705Z,44
2022-11-21T07:51:32.087Z,38
2022-11-21T07:53:15.479Z,46
2022-11-21T07:56:41.932Z,83
2022-11-21T07:58:25.327Z,69
2022-11-21T08:00:08.866Z,44
2022-11-21T08:01:52.133Z,49
2022-11-21T08:03:35.512Z,46
2022-11-21T08:05:19.055Z,152
2022-11-21T08:07:02.380Z,174
2022-11-21T08:08:45.753Z,180
2022-11-21T08:13:54.981Z,170
2022-11-21T08:15:38.391Z,158
2022-11-21T08:17:21.866Z,158
2022-11-21T08:19:05.133Z,167
2022-11-21T08:20:48.527Z,181
2022-11-21T08:22:31.948Z,241
2022-11-21T08:24:15.325Z,186
2022-11-21T08:25:58.719Z,179
2022-11-21T08:27:42.131Z,189
2022-11-21T08:31:08.597Z,243
2022-11-21T08:32:52.044Z,218
2022-11-21T08:34:35.374Z,173
2022-11-21T08:36:18.831Z,251
2022-11-21T08:38:02.212Z,271
2022-11-21T08:39:45.571Z,292
2022-11-21T08:41:29.049Z,287
2022-11-21T08:43:12.360Z,284
2022-11-21T08:46:38.846Z,315
2022-11-21T08:48:22.350Z,356
2022-11-21T08:50:05.632Z,398
2022-11-21T08:51:49.031Z,382
2022-11-21T08:53:32.417Z,350
2022-11-21T08:55:15.862Z,336
2022-11-21T08:56:59.215Z,328
2022-11-21T08:58:42.624Z,316
2022-11-21T09:02:09.163Z,371
2022-11-21T09:03:52.503Z,388
2022-11-21T09:05:35.915Z,439
2022-11-21T09:07:19.284Z,272
2022-11-21T09:09:02.678Z,284
2022-11-21T09:10:46.122Z,197
2022-11-21T09:12:29.474Z,258
2022-11-21T09:14:12.856Z,415
2022-11-21T09:17:39.340Z,525
2022-11-21T09:19:22.841Z,517
2022-11-21T09:21:06.112Z,526
2022-11-21T09:22:49.529Z,524
2022-11-21T09:24:32.924Z,563
2022-11-21T09:26:16.322Z,452
2022-11-21T09:27:59.716Z,571
2022-11-21T09:29:43.115Z,590
2022-11-21T09:31:26.816Z,557
2022-11-21T09:33:10.261Z,375
2022-11-21T09:34:53.652Z,342
2022-11-21T09:36:37.029Z,488
2022-11-21T09:38:20.393Z,582
2022-11-21T09:40:04.917Z,594
2022-11-21T09:41:47.285Z,638
2022-11-21T09:46:56.413Z,446
2022-11-21T09:48:39.813Z,392
2022-11-21T09:50:23.375Z,543
2022-11-21T09:52:06.695Z,374
2022-11-21T09:53:49.995Z,356
2022-11-21T09:55:33.403Z,335
2022-11-21T09:57:16.811Z,292
2022-11-21T10:02:26.094Z,306
2022-11-21T10:04:09.486Z,333
2022-11-21T10:05:52.844Z,355
2022-11-21T10:07:36.236Z,354
2022-11-21T10:09:19.669Z,362
2022-11-21T10:11:03.019Z,410
2022-11-21T10:12:46.414Z,485
2022-11-21T10:14:29.912Z,425
2022-11-21T10:16:13.513Z,394
2022-11-21T10:17:56.904Z,368
2022-11-21T10:19:40.307Z,353
2022-11-21T10:21:23.718Z,353
2022-11-21T10:23:07.094Z,706
2022-11-21T10:24:50.502Z,680
2022-11-21T10:26:33.934Z,694
2022-11-21T10:28:17.295Z,778
2022-11-21T10:31:43.791Z,556
2022-11-21T10:33:27.210Z,649
2022-11-21T10:35:10.544Z,545
2022-11-21T10:36:53.966Z,474
2022-11-21T10:38:37.344Z,485
2022-11-21T10:40:20.750Z,446
2022-11-21T10:42:04.138Z,444
2022-11-21T10:45:30.653Z,319
2022-11-21T10:47:14.016Z,323
2022-11-21T10:48:57.423Z,257
2022-11-21T10:50:40.800Z,268
2022-11-21T10:52:24.200Z,286
2022-11-21T10:54:07.634Z,287
2022-11-21T10:55:50.990Z,307
2022-11-21T10:57:34.386Z,305
2022-11-21T11:01:00.849Z,255
2022-11-21T11:02:44.368Z,296
2022-11-21T11:04:27.677Z,383
2022-11-21T11:06:11.048Z,408
2022-11-21T11:07:54.437Z,385
2022-11-21T11:09:37.828Z,416
2022-11-21T11:11:21.230Z,644
2022-11-21T11:14:47.707Z,779
2022-11-21T11:16:31.093Z,778
2022-11-21T11:18:14.492Z,667
2022-11-21T11:19:57.905Z,529
2022-11-21T11:21:41.401Z,532
2022-11-21T11:23:24.670Z,572
2022-11-21T11:25:08.076Z,558
2022-11-21T11:26:51.470Z,462
2022-11-21T11:28:35.180Z,440
2022-11-21T11:30:18.580Z,459
2022-11-21T11:32:02.127Z,488
2022-11-21T11:33:45.474Z,456
2022-11-21T11:35:28.759Z,393
2022-11-21T11:37:12.227Z,380
2022-11-21T11:38:55.543Z,347
2022-11-21T11:40:38.936Z,346
2022-11-21T11:42:22.652Z,365
2022-11-21T11:44:06.052Z,594
2022-11-21T11:45:49.525Z,500
2022-11-21T11:47:32.850Z,431
2022-11-21T11:49:16.243Z,418
2022-11-21T11:50:59.629Z,372
2022-11-21T11:52:43.029Z,375
2022-11-21T11:54:26.504Z,348
2022-11-21T11:57:52.897Z,506
2022-11-21T11:59:36.309Z,407
2022-11-21T12:01:19.695Z,455
2022-11-21T12:03:03.081Z,525
2022-11-21T12:04:46.475Z,527
2022-11-21T12:06:29.886Z,615
2022-11-21T12:08:13.315Z,561
2022-11-21T12:11:39.737Z,663
2022-11-21T12:13:23.137Z,599
2022-11-21T12:15:06.538Z,587
2022-11-21T12:16:49.925Z,582
2022-11-21T12:18:33.341Z,549
2022-11-21T12:20:16.706Z,407
2022-11-21T12:22:00.115Z,491
2022-11-21T12:23:43.544Z,261
2022-11-21T12:25:27.210Z,258
2022-11-21T12:27:10.616Z,395
2022-11-21T12:28:54.015Z,414
2022-11-21T12:30:37.400Z,388
2022-11-21T12:32:20.830Z,453
2022-11-21T12:34:04.188Z,474
2022-11-21T12:35:47.603Z,357
2022-11-21T12:40:56.845Z,219
2022-11-21T12:42:40.228Z,200
2022-11-21T12:44:23.631Z,188
2022-11-21T12:46:07.016Z,190
2022-11-21T12:47:50.431Z,193
2022-11-21T12:49:33.814Z,198
2022-11-21T12:51:17.232Z,203
2022-11-21T12:56:26.455Z,279
2022-11-21T12:58:09.866Z,292
2022-11-21T12:59:53.246Z,357
2022-11-21T13:01:36.640Z,389
2022-11-21T13:03:20.052Z,442
2022-11-21T13:05:03.448Z,487
2022-11-21T13:06:46.817Z,493
2022-11-21T13:08:30.343Z,509
2022-11-21T13:11:56.751Z,490
2022-11-21T13:13:40.089Z,485
2022-11-21T13:15:23.500Z,479
2022-11-21T13:17:06.897Z,436
2022-11-21T13:18:50.272Z,450
2022-11-21T13:20:33.688Z,443
2022-11-21T13:22:17.072Z,433
2022-11-21T13:24:00.481Z,397
2022-11-21T13:27:27.054Z,389
2022-11-21T13:29:10.334Z,336
2022-11-21T13:30:53.809Z,334
2022-11-21T13:32:37.171Z,320
2022-11-21T13:34:20.586Z,318
2022-11-21T13:36:03.924Z,322
2022-11-21T13:37:47.302Z,309
2022-11-21T13:39:30.708Z,301
2022-11-21T13:41:14.425Z,311
2022-11-21T13:42:57.819Z,326
2022-11-21T13:44:41.216Z,341
2022-11-21T13:46:24.656Z,363
2022-11-21T13:48:08.002Z,382
2022-11-21T13:49:51.406Z,386
2022-11-21T13:51:34.836Z,406
2022-11-21T13:53:18.197Z,401
2022-11-21T13:56:44.660Z,401
2022-11-21T13:58:28.097Z,412
2022-11-21T14:00:11.486Z,423
2022-11-21T14:01:54.883Z,404
2022-11-21T14:03:38.248Z,384
2022-11-21T14:05:21.648Z,361
2022-11-21T14:07:05.051Z,343
2022-11-21T14:08:48.445Z,316
2022-11-21T14:13:57.670Z,268
2022-11-21T14:15:41.096Z,256
2022-11-21T14:17:24.556Z,250
2022-11-21T14:19:07.872Z,247
2022-11-21T14:20:51.268Z,235
2022-11-21T14:22:34.651Z,229
2022-11-21T14:24:18.062Z,228
2022-11-21T14:26:01.458Z,223
2022-11-21T14:27:45.336Z,213
2022-11-21T14:29:28.698Z,199
2022-11-21T14:31:12.069Z,187
2022-11-21T14:32:55.514Z,170
2022-11-21T14:34:38.898Z,151
2022-11-21T14:36:22.124Z,137
2022-11-21T14:38:05.690Z,133
2022-11-21T14:39:49.129Z,125
2022-11-21T14:43:15.570Z,109
2022-11-21T14:44:58.927Z,101
2022-11-21T14:46:42.365Z,93
2022-11-21T14:48:25.588Z,85
2022-11-21T14:50:09.098Z,79
2022-11-21T14:51:52.605Z,72
2022-11-21T14:53:35.873Z,67
2022-11-21T14:55:19.261Z,65
2022-11-21T14:57:02.935Z,62
2022-11-21T14:58:46.436Z,59
2022-11-21T15:00:29.672Z,56
2022-11-21T15:02:13.114Z,54
2022-11-21T15:03:56.567Z,52
2022-11-21T15:05:39.864Z,50
2022-11-21T15:07:23.417Z,46
2022-11-21T15:09:06.814Z,43
2022-11-21T15:10:50.435Z,39
2022-11-21T15:12:33.910Z,32
2022-11-21T15:14:17.137Z,25
2022-11-21T15:16:00.785Z,21
2022-11-21T15:17:44.105Z,17
2022-11-21T15:19:27.335Z,15
2022-11-21T15:21:10.804Z,14
2022-11-21T15:22:54.306Z,13
2022-11-21T15:26:20.746Z,12
2022-11-21T15:28:04.175Z,11
2022-11-21T15:29:47.604Z,10
2022-11-21T15:31:30.819Z,10
2022-11-21T15:33:14.293Z,10
2022-11-21T15:34:57.619Z,9
2022-11-21T15:36:41.166Z,9
2022-11-21T15:38:24.363Z,8
2022-11-21T15:41:51.003Z,8
2022-11-21T15:43:34.437Z,7
2022-11-21T15:45:17.849Z,6
2022-11-21T15:47:01.201Z,6
2022-11-21T15:48:44.463Z,5
2022-11-21T15:50:27.984Z,279
2022-11-21T15:52:11.468Z,285
2022-11-21T15:53:54.814Z,287
2022-11-21T15:57:21.302Z,291
2022-11-21T15:59:04.689Z,294
2022-11-21T16:00:48.046Z,297
2022-11-21T16:02:31.301Z,298
2022-11-21T16:04:14.819Z,298
2022-11-21T16:05:58.333Z,296
2022-11-21T16:07:41.520Z,291
2022-11-21T16:11:08.082Z,313
2022-11-21T16:12:51.536Z,310
2022-11-21T16:14:34.847Z,316
2022-11-21T16:16:18.186Z,9
2022-11-21T16:18:01.597Z,9
2022-11-21T16:19:45.104Z,9
2022-11-21T16:21:28.397Z,9
2022-11-21T16:23:11.726Z,10
2022-11-21T16:24:55.453Z,9
2022-11-21T16:26:38.851Z,10
2022-11-21T16:28:22.209Z,8
2022-11-21T16:30:05.745Z,10
2022-11-21T16:31:49.083Z,9
2022-11-21T16:33:32.523Z,10
2022-11-21T16:35:15.862Z,8
2022-11-21T16:36:59.216Z,44
2022-11-21T16:38:42.952Z,35
2022-11-21T16:40:26.297Z,34
2022-11-21T16:42:09.774Z,9
2022-11-21T16:43:53.101Z,9
2022-11-21T16:45:36.496Z,10
2022-11-21T16:47:19.881Z,9
2022-11-21T16:49:03.347Z,10
2022-11-21T16:50:46.802Z,9
2022-11-21T16:54:13.219Z,9
2022-11-21T16:55:56.565Z,10
2022-11-21T16:57:40.054Z,10
2022-11-21T16:59:23.481Z,10
2022-11-21T17:01:06.814Z,10
2022-11-21T17:02:50.275Z,10
2022-11-21T17:04:33.728Z,10
2022-11-21T17:06:17.004Z,10
2022-11-21T17:09:43.438Z,10
2022-11-21T17:11:26.806Z,11
2022-11-21T17:13:10.177Z,10
2022-11-21T17:14:53.769Z,10
2022-11-21T17:16:37.147Z,9
2022-11-21T17:18:20.548Z,10
2022-11-21T17:20:03.775Z,10
2022-11-21T17:21:47.317Z,10
2022-11-21T17:23:30.968Z,10
2022-11-21T17:25:14.365Z,10
2022-11-21T17:26:57.758Z,10
2022-11-21T17:28:41.119Z,10
2022-11-21T17:30:24.458Z,10
2022-11-21T17:32:07.982Z,9
2022-11-21T17:33:51.271Z,10
2022-11-21T17:35:34.774Z,9
2022-11-21T17:39:01.264Z,9
2022-11-21T17:40:44.660Z,10
2022-11-21T17:42:27.924Z,7
2022-11-21T17:44:11.461Z,7
2022-11-21T17:45:54.743Z,10
2022-11-21T17:47:38.128Z,11
2022-11-21T17:49:21.632Z,10
2022-11-21T17:54:30.744Z,10
2022-11-21T17:56:14.238Z,11
2022-11-21T17:57:57.532Z,11
2022-11-21T17:59:40.941Z,10
2022-11-21T18:01:24.369Z,9
2022-11-21T18:03:07.733Z,9
2022-11-21T18:04:51.633Z,8
2022-11-21T18:10:00.376Z,9
2022-11-21T18:11:43.848Z,9
2022-11-21T18:13:27.222Z,10
2022-11-21T18:15:10.607Z,15
2022-11-21T18:16:54.050Z,15
2022-11-21T18:18:37.430Z,16
2022-11-21T18:20:20.747Z,16
2022-11-21T18:25:29.982Z,8
2022-11-21T18:27:13.465Z,9
2022-11-21T18:28:56.790Z,9
2022-11-21T18:30:40.235Z,8
2022-11-21T18:32:23.708Z,7
2022-11-21T18:34:06.991Z,10
2022-11-21T18:35:50.385Z,9
2022-11-21T18:37:33.773Z,9
2022-11-21T18:39:17.547Z,9
2022-11-21T18:41:00.907Z,9
2022-11-21T18:42:44.408Z,9
2022-11-21T18:44:27.829Z,9
2022-11-21T18:46:11.101Z,10
2022-11-21T18:47:54.511Z,8
2022-11-21T18:49:37.857Z,9
2022-11-21T18:51:21.264Z,9
2022-11-21T18:53:04.953Z,9
2022-11-21T18:54:48.350Z,9
2022-11-21T18:56:31.751Z,9
2022-11-21T18:58:15.129Z,9
2022-11-21T18:59:58.606Z,10
2022-11-21T19:01:42.059Z,9
2022-11-21T19:03:25.338Z,8
2022-11-21T19:05:08.790Z,9
2022-11-21T19:06:52.438Z,9
2022-11-21T19:08:35.843Z,9
2022-11-21T19:10:19.313Z,9
2022-11-21T19:12:02.700Z,9
2022-11-21T19:13:46.022Z,8
2022-11-21T19:15:29.537Z,9
2022-11-21T19:17:12.946Z,9
2022-11-21T19:18:56.252Z,9
2022-11-21T19:22:22.790Z,8
2022-11-21T19:24:06.227Z,9
2022-11-21T19:25:49.546Z,9
2022-11-21T19:27:33.049Z,8
2022-11-21T19:29:16.430Z,8
2022-11-21T19:30:59.869Z,9
2022-11-21T19:32:43.205Z,9
2022-11-21T19:36:09.541Z,8
2022-11-21T19:37:53.005Z,9
2022-11-21T19:39:36.539Z,9
2022-11-21T19:41:19.718Z,9
2022-11-21T19:43:03.258Z,9
2022-11-21T19:44:46.524Z,9
2022-11-21T19:46:30.035Z,8
2022-11-21T19:51:39.265Z,9
2022-11-21T19:53:22.556Z,9
2022-11-21T19:55:05.966Z,9
2022-11-21T19:56:49.376Z,9
2022-11-21T19:58:32.751Z,9
2022-11-21T20:00:16.202Z,9
2022-11-21T20:01:59.679Z,9
2022-11-21T20:07:08.828Z,9
2022-11-21T20:08:52.261Z,9
2022-11-21T20:10:35.797Z,8
2022-11-21T20:12:19.016Z,9
2022-11-21T20:14:02.549Z,9
2022-11-21T20:15:45.866Z,9
2022-11-21T20:17:29.269Z,9
2022-11-21T20:19:12.664Z,8
2022-11-21T20:20:56.351Z,8
2022-11-21T20:22:39.691Z,8
2022-11-21T20:24:23.163Z,9
2022-11-21T20:26:06.554Z,9
2022-11-21T20:27:49.995Z,9
2022-11-21T20:29:33.270Z,9
2022-11-21T20:31:16.727Z,8
2022-11-21T20:34:43.121Z,9
2022-11-21T20:36:26.608Z,10
2022-11-21T20:38:09.994Z,9
2022-11-21T20:39:53.334Z,9
2022-11-21T20:41:36.703Z,9
2022-11-21T20:43:20.106Z,9
2022-11-21T20:45:03.508Z,9
2022-11-21T20:46:46.958Z,9
2022-11-21T20:50:13.424Z,9
2022-11-21T20:51:56.766Z,9
2022-11-21T20:53:40.184Z,9
2022-11-21T20:55:23.610Z,9
2022-11-21T20:57:07.077Z,9
2022-11-21T20:58:50.355Z,9
2022-11-21T21:00:33.763Z,9
2022-11-21T21:04:00.234Z,9
2022-11-21T21:05:43.715Z,8
2022-11-21T21:07:27.035Z,8
2022-11-21T21:09:10.410Z,8
2022-11-21T21:10:53.832Z,9
2022-11-21T21:12:37.212Z,9
2022-11-21T21:14:20.610Z,9
2022-11-21T21:19:29.867Z,9
2022-11-21T21:21:13.336Z,8
2022-11-21T21:22:56.771Z,9
2022-11-21T21:24:40.047Z,8
2022-11-21T21:26:23.454Z,9
2022-11-21T21:28:06.936Z,8
2022-11-21T21:29:50.238Z,9
2022-11-21T21:33:16.778Z,8
2022-11-21T21:35:00.249Z,8
2022-11-21T21:36:43.504Z,9
2022-11-21T21:38:26.972Z,8
2022-11-21T21:40:10.366Z,8
2022-11-21T21:41:53.728Z,8
2022-11-21T21:43:37.121Z,9
2022-11-21T21:45:20.640Z,9
2022-11-21T21:48:46.972Z,9
2022-11-21T21:50:30.395Z,9
2022-11-21T21:52:13.764Z,9
2022-11-21T21:53:57.185Z,9
2022-11-21T21:55:40.664Z,9
2022-11-21T21:57:23.940Z,9
2022-11-21T21:59:07.337Z,9
2022-11-21T22:04:16.651Z,9
2022-11-21T22:05:59.975Z,9
2022-11-21T22:07:43.440Z,8
2022-11-21T22:09:27.016Z,9
2022-11-21T22:11:10.281Z,9
2022-11-21T22:12:53.701Z,8
2022-11-21T22:14:37.043Z,8
2022-11-21T22:19:46.315Z,9
2022-11-21T22:21:29.686Z,9
2022-11-21T22:23:13.002Z,8
2022-11-21T22:24:56.543Z,8
2022-11-21T22:26:39.819Z,9
2022-11-21T22:28:23.201Z,9
2022-11-21T22:30:06.596Z,9
2022-11-21T22:35:16.026Z,9
2022-11-21T22:36:59.342Z,8
2022-11-21T22:38:42.618Z,9
2022-11-21T22:40:26.091Z,9
2022-11-21T22:42:09.461Z,8
2022-11-21T22:43:52.868Z,9
2022-11-21T22:45:36.205Z,9
2022-11-21T22:47:19.709Z,10
2022-11-21T22:49:03.472Z,9
2022-11-21T22:50:46.765Z,8
2022-11-21T22:52:30.209Z,9
2022-11-21T22:54:13.551Z,9
2022-11-21T22:55:56.975Z,9
2022-11-21T22:57:40.421Z,9
2022-11-21T22:59:23.858Z,8
2022-11-21T23:01:07.121Z,9
2022-11-21T23:02:50.789Z,9
2022-11-21T23:04:34.358Z,9
2022-11-21T23:06:17.616Z,8
2022-11-21T23:08:00.994Z,9
2022-11-21T23:09:44.372Z,9
2022-11-21T23:11:27.999Z,9
2022-11-21T23:13:11.233Z,9
2022-11-21T23:14:54.734Z,9
2022-11-21T23:18:21.058Z,8
2022-11-21T23:20:04.612Z,8
2022-11-21T23:21:47.891Z,8
2022-11-21T23:23:31.248Z,8
2022-11-21T23:25:14.696Z,9
2022-11-21T23:26:58.131Z,9
2022-11-21T23:28:41.427Z,9
2022-11-21T23:30:24.820Z,9
2022-11-21T23:33:51.332Z,9
2022-11-21T23:35:34.701Z,9
2022-11-21T23:37:18.080Z,9
2022-11-21T23:39:01.565Z,8
2022-11-21T23:40:45.034Z,9
2022-11-21T23:42:28.358Z,9
2022-11-21T23:44:11.669Z,8
2022-11-21T23:45:55.177Z,8
2022-11-21T23:47:38.826Z,8
2022-11-21T23:49:22.280Z,8
2022-11-21T23:51:05.626Z,9
2022-11-21T23:52:48.972Z,7
2022-11-21T23:54:32.377Z,8
2022-11-21T23:56:15.754Z,8
2022-11-21T23:57:59.228Z,8
2022-11-21T23:59:42.542Z,8
